Terminal Aerodrome Forecast
Issued by NWS

Home | Current Version | Previous Version | Text Only | Print | Product List | Glossary Off
Versions: 1 2 3 4 5 6 7 8 9 10 11 12 13 14 15

969
FTUS43 KBIS 260540
TAFMOT
TAF
KMOT 260540Z 2606/2706 08009KT P6SM VCSH OVC035
     FM260800 06007KT P6SM -DZ OVC025
     FM261200 05009KT 4SM BR OVC030
     FM261700 08010KT P6SM OVC030
     FM261900 08010KT P6SM OVC045
     FM270200 07007KT P6SM OVC025=

USA.gov is the U.S. government's official web portal to all federal, state and local government web resources and services.